Accueil
METAR-TAF:

METAR-TAF

Aéroports :

Šiauliai, Lituanie

latitude: 55-53-38N, longitude: 023-23-42E, altitude: 135 m

Observation

Le bulletin a été fait il y a 17 minutes, à 04:20 UTC
Vent 5 kt de sud-ouest
Température 12°C
Humidité 76%
Pression 1017 hPa
Visibilité 10 km ou plus
pas de nuages en-dessous de 1500 mètres et pas de cumulonimbus.

METAR: EYSA 130420Z 23005KT CAVOK 12/08 Q1017 NOSIG

Heure: 07:37 (04:37 UTC)

Prévision

Le bulletin a été fait il y a 2 heures et 23 minutes, à 02:14 UTC
Prévision valable du 13 à 03 UTC au 13 à 12 UTC
Vent 5 kt de direction variable
Visibilité: 9000 m
Quelques nuages à une hauteur de 3000 ft
Temporairement
du 13 à 03 UTC au 13 à 04 UTC
Visibilité: 3000 m
Brouillard mince, brume
Temporairement
du 13 à 07 UTC au 13 à 12 UTC
Nuages épars à une hauteur de 4000 ft, Cumulus congestus.

TAF: EYSA 130214Z 1303/1312 VRB05KT 9000 FEW030 TEMPO 1303/1304 3000 MIFG BR TEMPO 1307/1312 SCT040TCU

Observations et prévisions météorologiques de plus de 4000 aéroports (messages METAR et TAF).

Les stations disponibles sont représentées par des disques jaunes et rouges sur la carte.

Passer la souris dessus pour voir le nom de la station.

Cliquer dessus pour voir les observations et prévisions météorologiques.

Pour changer de carte: cliquez sur les boutons verts avec une croix noire pour zoomer, sur le bouton vert avec un tiret pour effectuer un zoom arrière, ou sur les flèches vertes pour les cartes adjacentes.


METAR-TAF: